Acton, Montana
Current Conditions -  °F | °C
As of 10:53 PM on Saturday 22 Nov 2014 (Local Time) from KBIL Reporting Station
Few Clouds Few Clouds  
Wind Chill: 27°   Ceiling: Unl
Heat Index: 37°   Visibility: 10mi
Dew Point: 14°   Wind: 18mph
Humidity: 39%   Direction: 290°WNW
Pressure: 29.63"   Gusts: NA
Location:  45.93°N, 108.69°W
Report Text: KBIL 230553Z 29016KT 10SM FEW080 03/M10 A2963 RMK AO2 SLP040 T00281100 10067 20022 53027 $
Loading
Personal Weather Stations






























Interactive Weather Map New forecast layout! Learn more

10-Day Weather Forecast

Advertisements
Track Severe Weather on mobile